Latest Weather Observations for Kununurra Airport

IDW60801

Issued at 9:32 am WST Friday 4 September 2015 (issued every 30 minutes, with the page automatically refreshed every 10 minutes)

About weather observations | Map of weather stations | Latest weather observations for WA | Other Formats
Station Details ID: 002056 Name: KUNUNURRA AERO Lat: -15.78 Lon: 128.71 Height: 44.0 m
Data from the previous 72 hours. | See also: Recent months at Kununurra Airport
Date/Time
WST
Temp
°C
App
Temp
°C
Dew
Point
Rel
Hum
%
Delta-T
°C
Wind Press
QNH
hPa
Press
MSL
hPa
Rain
since 9 am
mm
Dir
 
Spd
km/h
Gust
km/h
Spd
kts
Gust
kts
04/09:30am 33.4 29.0 5.0 17 15.1 E 17 24 9 13 1017.4 1017.2 0.0
04/09:00am 32.1 28.1 4.8 18 14.3 E 15 22 8 12 1017.6 1017.4 0.0
04/08:30am 30.9 25.8 3.0 17 14.1 ESE 19 30 10 16 1017.6 1017.4 0.0
04/08:00am 29.6 27.2 6.9 24 12.2 SE 9 13 5 7 1017.5 1017.3 0.0
04/07:30am 27.7 26.0 10.0 33 9.9 SSE 9 13 5 7 1017.4 1017.2 0.0
04/07:00am 25.9 25.6 10.1 37 8.8 SSE 2 7 1 4 1017.2 1017.0 0.0
04/06:30am 22.5 22.7 10.6 47 6.6 CALM 0 0 0 0 1017.1 1016.9 0.0
04/06:00am 17.6 18.3 12.3 71 2.9 CALM 0 0 0 0 1016.8 1016.6 0.0
04/05:30am 16.3 16.8 11.5 73 2.6 CALM 0 0 0 0 1016.4 1016.2 0.0
04/05:00am 16.8 17.5 12.1 74 2.6 CALM 0 0 0 0 1016.0 1015.8 0.0
04/04:30am 17.4 17.8 11.2 67 3.4 CALM 0 0 0 0 1015.7 1015.5 0.0
04/04:00am 17.8 18.2 11.4 66 3.5 CALM 0 0 0 0 1015.4 1015.2 0.0
04/03:30am 18.2 18.1 10.8 62 4.0 ENE 2 9 1 5 1015.0 1014.8 0.0
04/03:00am 18.9 19.3 11.2 61 4.2 CALM 0 0 0 0 1014.9 1014.7 0.0
04/02:30am 18.9 18.9 11.2 61 4.2 NNE 2 6 1 3 1014.7 1014.5 0.0
04/02:00am 20.9 19.8 10.1 50 5.8 ENE 6 7 3 4 1014.7 1014.5 0.0
04/01:30am 20.7 20.0 11.9 57 4.9 E 7 11 4 6 1014.4 1014.2 0.0
04/01:00am 24.6 21.9 9.0 37 8.4 S 13 15 7 8 1014.3 1014.1 0.0
04/12:30am 21.0 20.4 13.4 62 4.4 SE 9 11 5 6 1014.4 1014.2 0.0
04/12:00am 18.5 18.7 12.9 70 3.1 ESE 4 9 2 5 1014.7 1014.5 0.0
 
Date/Time
WST
Temp
°C
App
Temp
°C
Dew
Point
Rel
Hum
%
Delta-T
°C
Wind Press
QNH
hPa
Press
MSL
hPa
Rain
since 9 am
mm
Dir
 
Spd
km/h
Gust
km/h
Spd
kts
Gust
kts
03/11:30pm 19.8 19.9 12.6 63 4.1 S 4 7 2 4 1015.1 1014.9 0.0
03/11:00pm 19.8 20.1 12.3 62 4.2 ENE 2 7 1 4 1015.6 1015.4 0.0
03/10:30pm 20.7 21.1 11.3 55 5.2 CALM 0 0 0 0 1015.7 1015.5 0.0
03/10:00pm 20.8 21.1 10.9 53 5.4 CALM 0 0 0 0 1015.9 1015.7 0.0
03/09:30pm 21.2 21.8 11.8 55 5.3 CALM 0 0 0 0 1015.8 1015.6 0.0
03/09:00pm 22.4 22.8 12.6 54 5.6 NW 2 7 1 4 1015.8 1015.6 0.0
03/08:30pm 22.7 22.1 12.3 52 5.9 NW 7 9 4 5 1015.7 1015.5 0.0
03/08:00pm 25.0 24.3 14.2 51 6.4 ESE 11 15 6 8 1015.5 1015.3 0.0
03/07:30pm 23.9 24.2 13.4 51 6.1 SE 4 11 2 6 1015.2 1015.0 0.0
03/07:00pm 24.6 25.6 13.2 49 6.6 CALM 0 0 0 0 1014.9 1014.7 0.0
03/06:30pm 26.1 26.7 11.8 41 8.2 CALM 0 0 0 0 1014.5 1014.3 0.0
03/06:00pm 28.2 28.5 14.4 42 8.3 SE 6 7 3 4 1014.1 1013.9 0.0
03/05:30pm 30.1 30.8 12.1 33 10.5 CALM 0 0 0 0 1013.6 1013.4 0.0
03/05:00pm 34.3 32.6 7.4 19 14.9 SSW 6 7 3 4 1013.4 1013.2 0.0
03/04:30pm 35.5 33.0 4.9 15 16.4 SSW 7 9 4 5 1013.3 1013.1 0.0
03/04:00pm 35.8 33.2 4.2 14 16.8 S 7 13 4 7 1013.2 1013.0 0.0
03/03:30pm 36.8 34.5 2.8 12 17.8 SW 4 9 2 5 1013.0 1012.8 0.0
03/03:00pm 36.3 34.1 3.5 13 17.3 SE 4 9 2 5 1013.1 1012.9 0.0
03/02:30pm 36.0 32.3 2.1 12 17.4 SSE 11 17 6 9 1013.1 1012.9 0.0
03/02:00pm 36.4 32.7 2.4 12 17.6 SE 11 17 6 9 1013.3 1013.1 0.0
03/01:30pm 35.7 31.2 1.9 12 17.3 SE 15 20 8 11 1013.7 1013.5 0.0
03/01:00pm 35.1 30.5 1.5 12 17.0 ESE 15 24 8 13 1014.2 1014.0 0.0
03/12:30pm 35.0 30.8 1.4 12 17.0 ENE 13 20 7 11 1014.7 1014.5 0.0
03/12:00pm 34.7 30.8 1.1 12 16.9 ESE 11 22 6 12 1015.2 1015.0 0.0
03/11:30am 33.9 28.8 0.5 12 16.5 ESE 17 28 9 15 1015.8 1015.6 0.0
03/11:00am 33.5 28.3 0.2 12 16.3 E 17 28 9 15 1016.4 1016.2 0.0
03/10:30am 33.4 27.1 1.3 13 16.1 E 24 32 13 17 1017.0 1016.8 0.0
03/10:00am 33.0 27.0 0.9 13 15.9 ESE 22 32 12 17 1017.3 1017.1 0.0
03/09:30am 31.9 26.8 3.0 16 14.7 SE 19 26 10 14 1017.6 1017.4 0.0
03/09:00am 31.7 26.5 3.7 17 14.4 ESE 20 26 11 14 1017.7 1017.5 0.0
03/08:30am 30.2 25.1 3.3 18 13.6 SE 19 28 10 15 1017.7 1017.5 0.0
03/08:00am 29.0 25.3 6.4 24 12.0 SSE 15 20 8 11 1017.7 1017.5 0.0
03/07:30am 28.1 25.3 8.4 29 10.8 SSE 13 19 7 10 1017.5 1017.3 0.0
03/07:00am 25.8 23.2 10.8 39 8.4 SSE 15 19 8 10 1017.2 1017.0 0.0
03/06:56am 25.8 23.8 11.6 41 8.1 SSE 13 17 7 9 1017.1 1016.9 0.0
03/06:55am 26.5 25.8 15.5 50 6.7 SSE 13 17 7 9 1012.6 1012.4 0.0
03/06:30am 24.3 23.6 14.4 54 5.9 S 11 15 6 8 1016.9 1016.7 0.0
03/06:00am 22.0 22.5 16.5 71 3.3 SE 9 15 5 8 1016.5 1016.3 0.0
03/05:30am 19.7 19.8 15.6 77 2.4 SE 9 9 5 5 1015.9 1015.7 0.0
03/05:00am 18.7 19.6 15.2 80 2.1 SE 4 9 2 5 1015.4 1015.2 0.0
03/04:30am 18.4 18.6 14.1 76 2.5 ESE 6 7 3 4 1014.7 1014.5 0.0
03/04:00am 19.5 20.1 14.3 72 3.0 E 4 6 2 3 1014.4 1014.2 0.0
03/03:30am 19.2 19.3 14.0 72 3.0 E 6 7 3 4 1014.2 1014.0 0.0
03/03:00am 19.3 19.1 13.7 70 3.2 NNW 7 9 4 5 1014.4 1014.2 0.0
03/02:30am 19.7 20.1 13.6 68 3.5 SE 4 6 2 3 1014.4 1014.2 0.0
03/02:00am 21.5 21.5 13.7 61 4.5 WSW 6 9 3 5 1014.4 1014.2 0.0
03/01:30am 22.7 21.5 14.0 58 5.1 ESE 13 17 7 9 1014.6 1014.4 0.0
03/01:00am 23.0 23.3 14.6 59 5.0 SE 6 9 3 5 1014.5 1014.3 0.0
03/12:30am 22.2 21.8 15.1 64 4.2 ESE 11 15 6 8 1014.6 1014.4 0.0
03/12:00am 20.7 19.9 13.9 65 3.9 WSW 11 13 6 7 1014.6 1014.4 0.0
 
Date/Time
WST
Temp
°C
App
Temp
°C
Dew
Point
Rel
Hum
%
Delta-T
°C
Wind Press
QNH
hPa
Press
MSL
hPa
Rain
since 9 am
mm
Dir
 
Spd
km/h
Gust
km/h
Spd
kts
Gust
kts
02/11:30pm 20.7 20.0 13.2 62 4.3 WNW 9 11 5 6 1015.1 1014.9 0.0
02/11:00pm 21.7 21.5 13.6 60 4.7 W 7 9 4 5 1015.5 1015.3 0.0
02/10:30pm 22.4 22.3 13.2 56 5.3 N 6 7 3 4 1015.4 1015.2 0.0
02/10:00pm 23.2 22.9 12.8 52 6.0 NW 6 7 3 4 1015.3 1015.1 0.0
02/09:30pm 24.2 21.9 13.1 50 6.4 NNE 17 17 9 9 1015.2 1015.0 0.0
02/09:00pm 25.0 24.9 13.2 48 6.9 N 6 13 3 7 1015.1 1014.9 0.0
02/08:30pm 25.2 25.1 13.4 48 6.9 N 6 7 3 4 1014.8 1014.6 0.0
02/08:00pm 25.4 23.8 13.9 49 6.8 NNE 15 17 8 9 1014.3 1014.1 0.0
02/07:30pm 27.1 24.9 13.4 42 8.1 N 17 19 9 10 1014.1 1013.9 0.0
02/07:00pm 28.6 28.2 12.9 38 9.3 NNW 7 11 4 6 1013.7 1013.5 0.0
02/06:30pm 27.7 27.3 12.9 40 8.7 NNE 7 11 4 6 1013.1 1012.9 0.0
02/06:00pm 30.6 28.9 12.5 33 10.7 SSE 13 13 7 7 1012.4 1012.2 0.0
02/05:30pm 31.0 29.7 11.4 30 11.4 SE 9 9 5 5 1012.2 1012.0 0.0
02/05:00pm 33.6 32.2 9.6 23 13.7 SE 7 9 4 5 1012.0 1011.7 0.0
02/04:30pm 35.1 32.9 8.0 19 15.2 SE 9 11 5 6 1011.8 1011.5 0.0
02/04:00pm 35.4 32.7 7.5 18 15.6 SE 11 13 6 7 1011.5 1011.2 0.0
02/03:30pm 36.0 33.1 8.0 18 15.8 SE 13 17 7 9 1011.5 1011.2 0.0
02/03:00pm 35.7 33.5 7.7 18 15.7 ESE 9 15 5 8 1011.5 1011.2 0.0
02/02:30pm 35.3 33.2 8.2 19 15.3 SE 9 24 5 13 1011.5 1011.2 0.0
02/02:00pm 35.8 34.0 9.3 20 15.2 NNE 9 13 5 7 1011.7 1011.4 0.0
02/01:30pm 34.8 33.1 8.5 20 14.9 ESE 7 15 4 8 1012.1 1011.8 0.0
02/01:00pm 35.1 32.7 8.8 20 15.0 SSE 11 19 6 10 1012.4 1012.2 0.0
02/12:30pm 35.7 34.2 9.3 20 15.2 S 7 15 4 8 1012.8 1012.6 0.0
02/12:00pm 34.8 32.0 8.5 20 14.9 E 13 20 7 11 1013.2 1013.0 0.0
02/11:30am 34.3 30.8 8.8 21 14.5 E 17 24 9 13 1013.6 1013.4 0.0
02/11:00am 34.2 30.5 9.4 22 14.2 ESE 19 26 10 14 1014.2 1014.0 0.0
02/10:30am 33.7 31.5 10.9 25 13.3 SE 13 20 7 11 1014.7 1014.5 0.0
02/10:00am 33.2 31.4 12.2 28 12.5 ESE 13 22 7 12 1015.2 1015.0 0.0
02/09:30am 31.8 31.3 14.9 36 10.4 ESE 11 15 6 8 1015.6 1015.4 0.0
02/09:00am 31.9 32.4 15.0 36 10.4 SW 6 11 3 6 1015.7 1015.5 0.0
02/08:30am 29.7 30.7 16.8 45 8.1 SW 7 15 4 8 1015.8 1015.6 0.0
02/08:00am 27.8 29.4 17.9 54 6.3 S 6 7 3 4 1015.8 1015.6 0.0
02/07:30am 25.8 27.9 19.0 66 4.4 S 6 7 3 4 1015.7 1015.5 0.0
02/07:00am 24.1 27.6 19.6 76 2.9 CALM 0 0 0 0 1015.5 1015.3 0.0
02/06:30am 22.3 24.6 19.5 84 1.8 SSE 6 7 3 4 1015.2 1015.0 0.0
02/06:00am 19.3 20.9 17.8 91 0.9 SSW 6 7 3 4 1014.9 1014.7 0.0
02/05:59am 19.3 20.8 17.6 90 1.0 SSW 6 7 3 4 1014.8 1014.6 0.0
02/05:49am 19.2 20.7 17.5 90 1.0 SW 6 6 3 3 1014.7 1014.5 0.0
02/05:30am 20.1 21.9 18.2 89 1.2 SE 6 7 3 4 1014.4 1014.2 0.0
02/05:00am 19.5 22.2 17.8 90 1.0 CALM 0 0 0 0 1014.0 1013.8 0.0
02/04:30am 19.1 21.2 17.2 89 1.2 SSE 2 6 1 3 1013.7 1013.5 0.0
02/04:00am 20.0 21.7 18.1 89 1.2 S 6 6 3 3 1013.5 1013.3 0.0
02/03:30am 20.8 23.9 18.6 87 1.4 CALM 0 0 0 0 1013.4 1013.2 0.0
02/03:00am 20.5 23.0 18.1 86 1.5 SE 2 7 1 4 1013.3 1013.1 0.0
02/02:30am 21.3 23.1 18.7 85 1.6 E 7 11 4 6 1013.3 1013.1 0.0
02/02:00am 22.1 23.9 18.7 81 2.1 SSE 7 11 4 6 1013.3 1013.1 0.0
02/01:30am 21.9 23.8 18.5 81 2.1 NNW 6 9 3 5 1013.2 1013.0 0.0
02/01:00am 22.3 23.7 17.7 75 2.9 NE 7 11 4 6 1013.4 1013.2 0.0
02/12:30am 22.4 24.0 18.2 77 2.6 NE 7 13 4 7 1013.6 1013.4 0.0
02/12:00am 22.9 24.0 18.0 74 3.1 NNE 9 11 5 6 1013.8 1013.6 0.0
 
Date/Time
WST
Temp
°C
App
Temp
°C
Dew
Point
Rel
Hum
%
Delta-T
°C
Wind Press
QNH
hPa
Press
MSL
hPa
Rain
since 9 am
mm
Dir
 
Spd
km/h
Gust
km/h
Spd
kts
Gust
kts
01/11:30pm 22.9 24.3 17.4 71 3.4 N 6 7 3 4 1014.2 1014.0 0.0
01/11:00pm 23.0 23.0 17.2 70 3.6 NE 13 15 7 8 1014.1 1013.9 0.0
01/10:30pm 22.9 23.5 16.7 68 3.8 ENE 9 11 5 6 1014.1 1013.9 0.0
01/10:00pm 24.1 23.8 16.4 62 4.7 NE 13 13 7 7 1014.0 1013.8 0.0
01/09:30pm 24.9 25.7 16.3 59 5.3 NE 7 9 4 5 1014.0 1013.8 0.0
01/09:00pm 25.1 24.6 16.0 57 5.6 N 13 17 7 9 1013.9 1013.7 0.0
01/08:30pm 26.1 25.3 16.1 54 6.1 N 15 19 8 10 1013.7 1013.5 0.0
01/08:00pm 26.6 25.4 16.2 52 6.4 N 17 20 9 11 1013.3 1013.1 0.0
01/07:30pm 27.2 26.4 16.2 51 6.8 N 15 19 8 10 1013.1 1012.9 0.0
01/07:00pm 26.6 25.6 15.6 50 6.7 N 15 19 8 10 1012.6 1012.4 0.0
01/06:30pm 28.0 26.5 15.3 46 7.8 N 17 24 9 13 1012.0 1011.7 0.0
01/06:00pm 29.0 28.5 15.9 45 8.1 N 13 17 7 9 1011.4 1011.1 0.0
01/05:30pm 30.4 28.7 15.7 41 9.1 N 19 22 10 12 1010.8 1010.5 0.0
01/05:00pm 31.9 29.5 15.4 37 10.2 N 22 35 12 19 1010.4 1010.1 0.0
01/04:30pm 32.3 29.3 14.9 35 10.7 NNE 24 32 13 17 1010.0 1009.7 0.0
01/04:00pm 32.7 30.0 15.7 36 10.6 NNE 24 33 13 18 1009.8 1009.5 0.0
01/03:30pm 33.6 31.0 16.0 34 11.1 NNE 24 32 13 17 1009.7 1009.4 0.0
01/03:00pm 33.3 31.9 17.0 37 10.4 N 20 26 11 14 1009.7 1009.4 0.0
01/02:30pm 34.7 32.7 14.0 28 12.7 N 17 22 9 12 1009.7 1009.4 0.0
01/02:00pm 35.6 33.2 13.7 27 13.4 NW 19 37 10 20 1009.9 1009.6 0.0
01/01:30pm 34.8 33.1 14.7 30 12.5 NNW 17 24 9 13 1010.2 1009.9 0.0
01/01:00pm 35.5 33.8 14.7 28 12.9 N 17 24 9 13 1010.7 1010.4 0.0
01/12:30pm 34.2 34.0 14.7 31 12.1 WSW 9 15 5 8 1011.3 1011.0 0.0
01/12:00pm 33.6 32.8 14.1 30 11.9 WNW 11 19 6 10 1011.7 1011.4 0.0
01/11:30am 34.9 34.5 15.3 31 12.3 SSE 11 19 6 10 1012.2 1012.0 0.0
01/11:00am 34.1 33.1 14.6 31 12.1 S 13 22 7 12 1012.7 1012.5 0.0
01/10:30am 34.4 33.3 15.3 31 11.9 WSW 15 22 8 12 1013.2 1013.0 0.0
01/10:00am 33.9 33.0 15.8 33 11.4 SW 15 20 8 11 1013.6 1013.4 0.0

Other Formats:

Comma delimited format used in spreadsheet applications
http://www.bom.gov.au/fwo/IDW60801/IDW60801.94216.axf

JavaScript Object Notation format (JSON) in row-major order
http://www.bom.gov.au/fwo/IDW60801/IDW60801.94216.json